METAR Data

Data at: 0207 UTC 16 Jan 2019

METAR for:KPHX (Phoenix/Sky Harbor, AZ, US)
Text:KPHX 160151Z 21004KT 10SM BKN050 BKN065 OVC120 13/13 A3007 RMK AO2 RAE25 SLP176 P0004 T01330128
Temperature: 13.3°C ( 56°F)
Dewpoint: 12.8°C ( 55°F) [RH = 97%]
Pressure (altimeter):30.07 inches Hg (1018.4 mb) [Sea level pressure: 1017.6 mb]
Winds:from the SSW (210 degrees) at 5 MPH (4 knots; 2.1 m/s)
Visibility:10 or more sm (16+ km)
Ceiling:5000 feet AGL
Clouds: broken clouds at 5000 feet AGL, broken clouds at 6500 feet AGL, overcast cloud deck at 12000 feet AGL